sensor_id;sensor_type;location;lat;lon;timestamp;P1;durP1;ratioP1;P2;durP2;ratioP2
50946;SDS011;36955;47.416;7.716;2022-09-09T00:03:53;2.10;;;0.77;;
50946;SDS011;36955;47.416;7.716;2022-09-09T00:07:25;1.55;;;0.73;;
50946;SDS011;36955;47.416;7.716;2022-09-09T00:09:44;1.35;;;0.60;;
50946;SDS011;36955;47.416;7.716;2022-09-09T00:12:15;1.02;;;0.77;;
50946;SDS011;36955;47.416;7.716;2022-09-09T00:15:07;1.90;;;0.60;;
50946;SDS011;36955;47.416;7.716;2022-09-09T00:17:39;3.08;;;0.70;;
50946;SDS011;36955;47.416;7.716;2022-09-09T00:20:21;1.55;;;0.80;;
50946;SDS011;36955;47.416;7.716;2022-09-09T00:23:00;3.03;;;1.00;;
50946;SDS011;36955;47.416;7.716;2022-09-09T00:28:36;2.25;;;0.93;;
50946;SDS011;36955;47.416;7.716;2022-09-09T00:31:16;2.67;;;0.70;;
50946;SDS011;36955;47.416;7.716;2022-09-09T00:33:48;1.42;;;0.65;;
50946;SDS011;36955;47.416;7.716;2022-09-09T00:36:17;2.65;;;0.85;;
50946;SDS011;36955;47.416;7.716;2022-09-09T00:38:51;1.60;;;0.73;;
50946;SDS011;36955;47.416;7.716;2022-09-09T00:55:53;2.92;;;0.65;;
50946;SDS011;36955;47.416;7.716;2022-09-09T00:58:27;2.45;;;0.85;;
50946;SDS011;36955;47.416;7.716;2022-09-09T01:00:58;1.92;;;0.73;;
50946;SDS011;36955;47.416;7.716;2022-09-09T01:08:42;2.10;;;0.63;;
50946;SDS011;36955;47.416;7.716;2022-09-09T01:11:22;2.08;;;0.70;;
50946;SDS011;36955;47.416;7.716;2022-09-09T01:13:52;2.53;;;0.60;;
50946;SDS011;36955;47.416;7.716;2022-09-09T01:16:28;1.88;;;0.70;;
50946;SDS011;36955;47.416;7.716;2022-09-09T01:18:55;2.75;;;0.82;;
50946;SDS011;36955;47.416;7.716;2022-09-09T01:24:31;1.08;;;0.50;;
50946;SDS011;36955;47.416;7.716;2022-09-09T01:27:01;3.13;;;1.20;;
50946;SDS011;36955;47.416;7.716;2022-09-09T01:29:30;2.30;;;0.77;;
50946;SDS011;36955;47.416;7.716;2022-09-09T01:31:57;1.35;;;0.80;;
50946;SDS011;36955;47.416;7.716;2022-09-09T01:34:26;1.20;;;0.98;;
50946;SDS011;36955;47.416;7.716;2022-09-09T01:39:25;2.17;;;0.90;;
50946;SDS011;36955;47.416;7.716;2022-09-09T01:41:52;2.72;;;0.80;;
50946;SDS011;36955;47.416;7.716;2022-09-09T01:44:19;2.40;;;0.90;;
50946;SDS011;36955;47.416;7.716;2022-09-09T01:46:46;3.45;;;0.80;;
50946;SDS011;36955;47.416;7.716;2022-09-09T01:49:12;1.70;;;1.20;;
50946;SDS011;36955;47.416;7.716;2022-09-09T01:51:38;1.73;;;0.80;;
50946;SDS011;36955;47.416;7.716;2022-09-09T01:54:07;2.72;;;1.00;;
50946;SDS011;36955;47.416;7.716;2022-09-09T02:04:36;3.70;;;0.90;;
50946;SDS011;36955;47.416;7.716;2022-09-09T02:09:52;1.48;;;0.70;;
50946;SDS011;36955;47.416;7.716;2022-09-09T02:12:26;1.65;;;0.73;;
50946;SDS011;36955;47.416;7.716;2022-09-09T02:14:55;2.22;;;0.80;;
50946;SDS011;36955;47.416;7.716;2022-09-09T02:17:31;2.55;;;0.82;;
50946;SDS011;36955;47.416;7.716;2022-09-09T02:20:08;1.55;;;0.80;;
50946;SDS011;36955;47.416;7.716;2022-09-09T02:22:38;2.42;;;0.90;;
50946;SDS011;36955;47.416;7.716;2022-09-09T02:25:08;2.25;;;0.85;;
50946;SDS011;36955;47.416;7.716;2022-09-09T02:27:37;2.92;;;0.90;;
50946;SDS011;36955;47.416;7.716;2022-09-09T02:30:05;1.20;;;1.02;;
50946;SDS011;36955;47.416;7.716;2022-09-09T02:32:32;1.58;;;0.80;;
50946;SDS011;36955;47.416;7.716;2022-09-09T02:35:08;1.65;;;1.20;;
50946;SDS011;36955;47.416;7.716;2022-09-09T02:37:38;2.63;;;0.93;;
50946;SDS011;36955;47.416;7.716;2022-09-09T02:40:06;1.80;;;0.90;;
50946;SDS011;36955;47.416;7.716;2022-09-09T02:42:40;1.05;;;0.75;;
50946;SDS011;36955;47.416;7.716;2022-09-09T02:45:14;1.25;;;0.68;;
50946;SDS011;36955;47.416;7.716;2022-09-09T02:48:28;3.60;;;0.80;;
50946;SDS011;36955;47.416;7.716;2022-09-09T02:56:32;3.03;;;1.02;;
50946;SDS011;36955;47.416;7.716;2022-09-09T02:59:06;7.85;;;1.33;;
50946;SDS011;36955;47.416;7.716;2022-09-09T03:01:32;3.45;;;1.10;;
50946;SDS011;36955;47.416;7.716;2022-09-09T03:03:58;4.72;;;0.90;;
50946;SDS011;36955;47.416;7.716;2022-09-09T03:06:24;1.27;;;0.70;;
50946;SDS011;36955;47.416;7.716;2022-09-09T03:08:50;2.03;;;1.10;;
50946;SDS011;36955;47.416;7.716;2022-09-09T03:11:17;3.38;;;0.90;;
50946;SDS011;36955;47.416;7.716;2022-09-09T03:13:43;2.88;;;1.02;;
50946;SDS011;36955;47.416;7.716;2022-09-09T03:16:09;1.60;;;0.52;;
50946;SDS011;36955;47.416;7.716;2022-09-09T03:18:35;6.05;;;1.75;;
50946;SDS011;36955;47.416;7.716;2022-09-09T03:21:01;4.38;;;1.05;;
50946;SDS011;36955;47.416;7.716;2022-09-09T03:23:27;4.32;;;1.38;;
50946;SDS011;36955;47.416;7.716;2022-09-09T03:25:53;3.47;;;0.80;;
50946;SDS011;36955;47.416;7.716;2022-09-09T03:28:19;2.78;;;1.08;;
50946;SDS011;36955;47.416;7.716;2022-09-09T03:30:46;1.95;;;0.75;;
50946;SDS011;36955;47.416;7.716;2022-09-09T03:33:12;4.70;;;1.08;;
50946;SDS011;36955;47.416;7.716;2022-09-09T03:35:38;5.40;;;0.80;;
50946;SDS011;36955;47.416;7.716;2022-09-09T03:38:04;3.15;;;1.00;;
50946;SDS011;36955;47.416;7.716;2022-09-09T03:40:30;4.15;;;1.00;;
50946;SDS011;36955;47.416;7.716;2022-09-09T03:42:57;3.40;;;0.95;;
50946;SDS011;36955;47.416;7.716;2022-09-09T03:45:23;3.80;;;0.80;;
50946;SDS011;36955;47.416;7.716;2022-09-09T03:47:49;5.57;;;1.00;;
50946;SDS011;36955;47.416;7.716;2022-09-09T03:50:15;2.20;;;0.80;;
50946;SDS011;36955;47.416;7.716;2022-09-09T03:52:41;2.08;;;0.70;;
50946;SDS011;36955;47.416;7.716;2022-09-09T03:55:07;6.28;;;1.13;;
50946;SDS011;36955;47.416;7.716;2022-09-09T03:57:34;2.38;;;1.00;;
50946;SDS011;36955;47.416;7.716;2022-09-09T04:00:05;3.47;;;1.10;;
50946;SDS011;36955;47.416;7.716;2022-09-09T04:02:32;3.15;;;0.80;;
50946;SDS011;36955;47.416;7.716;2022-09-09T04:04:59;1.73;;;0.73;;
50946;SDS011;36955;47.416;7.716;2022-09-09T04:07:25;3.03;;;0.80;;
50946;SDS011;36955;47.416;7.716;2022-09-09T04:09:51;3.88;;;0.82;;
50946;SDS011;36955;47.416;7.716;2022-09-09T04:12:17;2.05;;;0.93;;
50946;SDS011;36955;47.416;7.716;2022-09-09T04:14:43;4.88;;;1.00;;
50946;SDS011;36955;47.416;7.716;2022-09-09T04:17:09;4.38;;;0.95;;
50946;SDS011;36955;47.416;7.716;2022-09-09T04:19:35;3.95;;;0.90;;
50946;SDS011;36955;47.416;7.716;2022-09-09T04:22:01;1.75;;;0.80;;
50946;SDS011;36955;47.416;7.716;2022-09-09T04:24:27;2.45;;;0.90;;
50946;SDS011;36955;47.416;7.716;2022-09-09T04:26:53;1.67;;;0.70;;
50946;SDS011;36955;47.416;7.716;2022-09-09T04:29:19;2.63;;;0.88;;
50946;SDS011;36955;47.416;7.716;2022-09-09T04:31:45;2.42;;;0.93;;
50946;SDS011;36955;47.416;7.716;2022-09-09T04:34:11;4.68;;;1.10;;
50946;SDS011;36955;47.416;7.716;2022-09-09T04:36:37;3.88;;;0.98;;
50946;SDS011;36955;47.416;7.716;2022-09-09T04:39:03;3.72;;;0.90;;
50946;SDS011;36955;47.416;7.716;2022-09-09T04:41:29;3.08;;;1.05;;
50946;SDS011;36955;47.416;7.716;2022-09-09T04:43:56;4.63;;;1.10;;
50946;SDS011;36955;47.416;7.716;2022-09-09T04:46:22;1.77;;;0.93;;
50946;SDS011;36955;47.416;7.716;2022-09-09T04:48:49;6.88;;;1.77;;
50946;SDS011;36955;47.416;7.716;2022-09-09T04:51:15;5.75;;;1.30;;
50946;SDS011;36955;47.416;7.716;2022-09-09T04:53:42;3.15;;;1.00;;
50946;SDS011;36955;47.416;7.716;2022-09-09T04:56:11;2.78;;;0.82;;
50946;SDS011;36955;47.416;7.716;2022-09-09T04:58:39;3.28;;;0.90;;
50946;SDS011;36955;47.416;7.716;2022-09-09T05:01:06;6.83;;;1.10;;
50946;SDS011;36955;47.416;7.716;2022-09-09T05:03:34;4.70;;;1.30;;
50946;SDS011;36955;47.416;7.716;2022-09-09T05:08:31;2.65;;;0.75;;
50946;SDS011;36955;47.416;7.716;2022-09-09T05:10:58;7.60;;;1.48;;
50946;SDS011;36955;47.416;7.716;2022-09-09T05:13:24;4.65;;;1.10;;
50946;SDS011;36955;47.416;7.716;2022-09-09T05:15:53;3.33;;;0.95;;
50946;SDS011;36955;47.416;7.716;2022-09-09T05:18:20;1.80;;;0.95;;
50946;SDS011;36955;47.416;7.716;2022-09-09T05:20:46;3.65;;;0.90;;
50946;SDS011;36955;47.416;7.716;2022-09-09T05:23:12;4.30;;;1.70;;
50946;SDS011;36955;47.416;7.716;2022-09-09T05:25:38;4.90;;;1.10;;
50946;SDS011;36955;47.416;7.716;2022-09-09T05:28:05;5.88;;;0.98;;
50946;SDS011;36955;47.416;7.716;2022-09-09T05:30:31;4.45;;;1.67;;
50946;SDS011;36955;47.416;7.716;2022-09-09T05:32:57;2.72;;;1.00;;
50946;SDS011;36955;47.416;7.716;2022-09-09T05:35:23;2.40;;;0.82;;
50946;SDS011;36955;47.416;7.716;2022-09-09T05:37:49;2.55;;;1.10;;
50946;SDS011;36955;47.416;7.716;2022-09-09T05:40:15;4.18;;;1.00;;
50946;SDS011;36955;47.416;7.716;2022-09-09T05:42:42;1.45;;;0.85;;
50946;SDS011;36955;47.416;7.716;2022-09-09T05:45:08;4.60;;;0.90;;
50946;SDS011;36955;47.416;7.716;2022-09-09T05:47:35;3.45;;;1.00;;
50946;SDS011;36955;47.416;7.716;2022-09-09T05:50:02;4.18;;;1.02;;
50946;SDS011;36955;47.416;7.716;2022-09-09T05:52:28;4.25;;;1.15;;
50946;SDS011;36955;47.416;7.716;2022-09-09T05:54:54;2.47;;;0.80;;
50946;SDS011;36955;47.416;7.716;2022-09-09T05:57:21;4.25;;;1.00;;
50946;SDS011;36955;47.416;7.716;2022-09-09T05:59:47;4.88;;;0.90;;
50946;SDS011;36955;47.416;7.716;2022-09-09T06:02:13;1.90;;;1.10;;
50946;SDS011;36955;47.416;7.716;2022-09-09T06:04:39;4.25;;;1.33;;
50946;SDS011;36955;47.416;7.716;2022-09-09T06:07:05;3.72;;;1.10;;
50946;SDS011;36955;47.416;7.716;2022-09-09T06:09:31;5.38;;;0.98;;
50946;SDS011;36955;47.416;7.716;2022-09-09T06:11:57;3.55;;;0.73;;
50946;SDS011;36955;47.416;7.716;2022-09-09T06:14:23;3.80;;;1.10;;
50946;SDS011;36955;47.416;7.716;2022-09-09T06:16:49;3.15;;;0.80;;
50946;SDS011;36955;47.416;7.716;2022-09-09T06:19:16;3.60;;;0.82;;
50946;SDS011;36955;47.416;7.716;2022-09-09T06:21:42;2.92;;;0.70;;
50946;SDS011;36955;47.416;7.716;2022-09-09T06:24:08;3.38;;;0.88;;
50946;SDS011;36955;47.416;7.716;2022-09-09T06:26:36;3.72;;;1.10;;
50946;SDS011;36955;47.416;7.716;2022-09-09T06:29:03;2.53;;;0.90;;
50946;SDS011;36955;47.416;7.716;2022-09-09T06:31:30;3.85;;;0.70;;
50946;SDS011;36955;47.416;7.716;2022-09-09T06:33:58;2.67;;;0.70;;
50946;SDS011;36955;47.416;7.716;2022-09-09T06:36:31;7.25;;;1.10;;
50946;SDS011;36955;47.416;7.716;2022-09-09T06:38:59;3.58;;;1.00;;
50946;SDS011;36955;47.416;7.716;2022-09-09T06:41:26;4.95;;;0.95;;
50946;SDS011;36955;47.416;7.716;2022-09-09T06:43:54;3.45;;;0.70;;
50946;SDS011;36955;47.416;7.716;2022-09-09T06:46:21;2.95;;;0.90;;
50946;SDS011;36955;47.416;7.716;2022-09-09T06:48:48;2.17;;;0.60;;
50946;SDS011;36955;47.416;7.716;2022-09-09T06:51:18;2.80;;;0.80;;
50946;SDS011;36955;47.416;7.716;2022-09-09T06:53:45;3.53;;;0.80;;
50946;SDS011;36955;47.416;7.716;2022-09-09T06:58:44;4.05;;;1.00;;
50946;SDS011;36955;47.416;7.716;2022-09-09T07:01:15;1.45;;;0.63;;
50946;SDS011;36955;47.416;7.716;2022-09-09T07:03:45;4.40;;;1.05;;
50946;SDS011;36955;47.416;7.716;2022-09-09T07:06:16;3.63;;;1.00;;
50946;SDS011;36955;47.416;7.716;2022-09-09T07:08:48;4.35;;;1.13;;
50946;SDS011;36955;47.416;7.716;2022-09-09T07:11:22;3.10;;;0.70;;
50946;SDS011;36955;47.416;7.716;2022-09-09T07:13:49;3.38;;;0.90;;
50946;SDS011;36955;47.416;7.716;2022-09-09T07:16:16;1.90;;;0.70;;
50946;SDS011;36955;47.416;7.716;2022-09-09T07:18:44;3.20;;;1.00;;
50946;SDS011;36955;47.416;7.716;2022-09-09T07:21:11;3.20;;;0.98;;
50946;SDS011;36955;47.416;7.716;2022-09-09T07:23:38;1.88;;;0.95;;
50946;SDS011;36955;47.416;7.716;2022-09-09T07:26:11;4.88;;;1.00;;
50946;SDS011;36955;47.416;7.716;2022-09-09T07:28:39;2.40;;;1.00;;
50946;SDS011;36955;47.416;7.716;2022-09-09T07:31:05;2.97;;;0.90;;
50946;SDS011;36955;47.416;7.716;2022-09-09T07:33:34;2.53;;;0.80;;
50946;SDS011;36955;47.416;7.716;2022-09-09T07:36:04;3.72;;;0.90;;
50946;SDS011;36955;47.416;7.716;2022-09-09T07:38:39;4.43;;;1.20;;
50946;SDS011;36955;47.416;7.716;2022-09-09T07:41:10;3.78;;;0.98;;
50946;SDS011;36955;47.416;7.716;2022-09-09T07:43:41;3.67;;;0.93;;
50946;SDS011;36955;47.416;7.716;2022-09-09T07:46:08;2.38;;;0.88;;
50946;SDS011;36955;47.416;7.716;2022-09-09T07:48:35;3.22;;;0.95;;
50946;SDS011;36955;47.416;7.716;2022-09-09T07:51:03;4.13;;;1.13;;
50946;SDS011;36955;47.416;7.716;2022-09-09T07:53:40;4.65;;;1.15;;
50946;SDS011;36955;47.416;7.716;2022-09-09T07:56:07;2.88;;;0.85;;
50946;SDS011;36955;47.416;7.716;2022-09-09T07:58:36;3.13;;;1.10;;
50946;SDS011;36955;47.416;7.716;2022-09-09T08:01:22;5.93;;;1.40;;
50946;SDS011;36955;47.416;7.716;2022-09-09T08:04:01;3.70;;;1.17;;
50946;SDS011;36955;47.416;7.716;2022-09-09T08:06:31;4.07;;;0.98;;
50946;SDS011;36955;47.416;7.716;2022-09-09T08:08:59;4.55;;;1.73;;
50946;SDS011;36955;47.416;7.716;2022-09-09T08:11:26;3.28;;;1.13;;
50946;SDS011;36955;47.416;7.716;2022-09-09T08:13:54;2.63;;;0.82;;
50946;SDS011;36955;47.416;7.716;2022-09-09T08:16:24;3.35;;;1.45;;
50946;SDS011;36955;47.416;7.716;2022-09-09T08:18:52;2.25;;;0.80;;
50946;SDS011;36955;47.416;7.716;2022-09-09T08:21:38;3.55;;;0.88;;
50946;SDS011;36955;47.416;7.716;2022-09-09T08:24:06;3.40;;;0.75;;
50946;SDS011;36955;47.416;7.716;2022-09-09T08:26:35;4.65;;;1.42;;
50946;SDS011;36955;47.416;7.716;2022-09-09T08:29:06;4.10;;;0.90;;
50946;SDS011;36955;47.416;7.716;2022-09-09T08:34:01;3.22;;;1.08;;
50946;SDS011;36955;47.416;7.716;2022-09-09T08:36:28;2.30;;;0.82;;
50946;SDS011;36955;47.416;7.716;2022-09-09T08:38:56;6.55;;;1.33;;
50946;SDS011;36955;47.416;7.716;2022-09-09T08:46:39;6.50;;;0.90;;
50946;SDS011;36955;47.416;7.716;2022-09-09T08:52:16;4.65;;;1.00;;
50946;SDS011;36955;47.416;7.716;2022-09-09T08:54:47;3.78;;;1.00;;
50946;SDS011;36955;47.416;7.716;2022-09-09T08:57:14;6.33;;;1.30;;
50946;SDS011;36955;47.416;7.716;2022-09-09T08:59:46;2.85;;;1.00;;
50946;SDS011;36955;47.416;7.716;2022-09-09T09:02:38;3.60;;;0.90;;
50946;SDS011;36955;47.416;7.716;2022-09-09T09:08:08;4.63;;;1.10;;
50946;SDS011;36955;47.416;7.716;2022-09-09T09:10:51;2.70;;;0.88;;
50946;SDS011;36955;47.416;7.716;2022-09-09T09:13:32;4.20;;;0.82;;
50946;SDS011;36955;47.416;7.716;2022-09-09T09:16:02;3.08;;;0.88;;
50946;SDS011;36955;47.416;7.716;2022-09-09T09:18:38;3.55;;;0.90;;
50946;SDS011;36955;47.416;7.716;2022-09-09T09:21:10;3.50;;;0.90;;
50946;SDS011;36955;47.416;7.716;2022-09-09T09:23:48;4.40;;;0.90;;
50946;SDS011;36955;47.416;7.716;2022-09-09T09:26:21;4.55;;;1.00;;
50946;SDS011;36955;47.416;7.716;2022-09-09T09:28:51;4.60;;;1.23;;
50946;SDS011;36955;47.416;7.716;2022-09-09T09:31:21;1.42;;;0.63;;
50946;SDS011;36955;47.416;7.716;2022-09-09T09:33:51;2.08;;;0.70;;
50946;SDS011;36955;47.416;7.716;2022-09-09T09:36:20;2.22;;;0.90;;
50946;SDS011;36955;47.416;7.716;2022-09-09T09:38:53;4.30;;;0.85;;
50946;SDS011;36955;47.416;7.716;2022-09-09T09:44:27;3.63;;;0.80;;
50946;SDS011;36955;47.416;7.716;2022-09-09T09:47:07;2.03;;;0.80;;
50946;SDS011;36955;47.416;7.716;2022-09-09T09:49:37;4.28;;;1.45;;
50946;SDS011;36955;47.416;7.716;2022-09-09T09:52:04;2.15;;;0.82;;
50946;SDS011;36955;47.416;7.716;2022-09-09T09:54:32;3.88;;;0.73;;
50946;SDS011;36955;47.416;7.716;2022-09-09T09:57:12;2.60;;;0.65;;
50946;SDS011;36955;47.416;7.716;2022-09-09T09:59:41;2.97;;;0.88;;
50946;SDS011;36955;47.416;7.716;2022-09-09T10:02:31;2.92;;;0.70;;
50946;SDS011;36955;47.416;7.716;2022-09-09T10:05:04;1.88;;;0.63;;
50946;SDS011;36955;47.416;7.716;2022-09-09T10:07:37;4.40;;;0.80;;
50946;SDS011;36955;47.416;7.716;2022-09-09T10:10:04;4.05;;;0.80;;
50946;SDS011;36955;47.416;7.716;2022-09-09T10:15:22;3.13;;;0.93;;
50946;SDS011;36955;47.416;7.716;2022-09-09T10:32:14;3.17;;;0.80;;
50946;SDS011;36955;47.416;7.716;2022-09-09T10:43:20;3.08;;;0.98;;
50946;SDS011;36955;47.416;7.716;2022-09-09T10:46:18;4.40;;;1.00;;
50946;SDS011;36955;47.416;7.716;2022-09-09T10:54:28;0.90;;;0.57;;
50946;SDS011;36955;47.416;7.716;2022-09-09T10:57:13;3.50;;;0.90;;
50946;SDS011;36955;47.416;7.716;2022-09-09T10:59:50;3.80;;;1.15;;
50946;SDS011;36955;47.416;7.716;2022-09-09T11:02:21;2.05;;;0.60;;
50946;SDS011;36955;47.416;7.716;2022-09-09T11:04:57;2.10;;;0.57;;
50946;SDS011;36955;47.416;7.716;2022-09-09T11:10:15;2.42;;;0.88;;
50946;SDS011;36955;47.416;7.716;2022-09-09T11:12:59;2.50;;;0.82;;
50946;SDS011;36955;47.416;7.716;2022-09-09T11:15:31;1.75;;;0.60;;
50946;SDS011;36955;47.416;7.716;2022-09-09T11:18:04;2.25;;;0.50;;
50946;SDS011;36955;47.416;7.716;2022-09-09T11:20:36;5.47;;;0.98;;
50946;SDS011;36955;47.416;7.716;2022-09-09T11:23:04;2.80;;;0.65;;
50946;SDS011;36955;47.416;7.716;2022-09-09T11:25:40;3.13;;;0.77;;
50946;SDS011;36955;47.416;7.716;2022-09-09T11:36:01;2.38;;;0.52;;
50946;SDS011;36955;47.416;7.716;2022-09-09T11:41:11;1.88;;;0.60;;
50946;SDS011;36955;47.416;7.716;2022-09-09T11:43:42;2.05;;;0.52;;
50946;SDS011;36955;47.416;7.716;2022-09-09T11:46:11;1.50;;;0.50;;
50946;SDS011;36955;47.416;7.716;2022-09-09T11:48:41;2.05;;;0.88;;
50946;SDS011;36955;47.416;7.716;2022-09-09T11:51:09;3.05;;;0.82;;
50946;SDS011;36955;47.416;7.716;2022-09-09T11:53:48;1.98;;;0.60;;
50946;SDS011;36955;47.416;7.716;2022-09-09T11:59:19;2.45;;;0.70;;
50946;SDS011;36955;47.416;7.716;2022-09-09T12:01:54;2.47;;;0.88;;
50946;SDS011;36955;47.416;7.716;2022-09-09T12:04:49;1.75;;;0.55;;
50946;SDS011;36955;47.416;7.716;2022-09-09T12:12:52;2.45;;;0.50;;
50946;SDS011;36955;47.416;7.716;2022-09-09T12:15:20;1.52;;;0.50;;
50946;SDS011;36955;47.416;7.716;2022-09-09T12:17:52;3.00;;;0.65;;
50946;SDS011;36955;47.416;7.716;2022-09-09T12:20:21;1.90;;;0.50;;
50946;SDS011;36955;47.416;7.716;2022-09-09T12:22:55;2.70;;;0.73;;
50946;SDS011;36955;47.416;7.716;2022-09-09T12:33:50;2.13;;;0.70;;
50946;SDS011;36955;47.416;7.716;2022-09-09T12:36:18;2.70;;;0.82;;
50946;SDS011;36955;47.416;7.716;2022-09-09T12:38:53;1.80;;;0.60;;
50946;SDS011;36955;47.416;7.716;2022-09-09T12:41:22;1.50;;;0.47;;
50946;SDS011;36955;47.416;7.716;2022-09-09T12:44:03;3.20;;;0.70;;
50946;SDS011;36955;47.416;7.716;2022-09-09T12:46:36;1.90;;;0.63;;
50946;SDS011;36955;47.416;7.716;2022-09-09T12:51:56;2.58;;;0.50;;
50946;SDS011;36955;47.416;7.716;2022-09-09T12:54:23;3.00;;;0.55;;
50946;SDS011;36955;47.416;7.716;2022-09-09T12:56:49;1.58;;;0.50;;
50946;SDS011;36955;47.416;7.716;2022-09-09T12:59:25;1.33;;;0.50;;
50946;SDS011;36955;47.416;7.716;2022-09-09T13:02:00;1.55;;;0.40;;
50946;SDS011;36955;47.416;7.716;2022-09-09T13:04:27;1.40;;;0.30;;
50946;SDS011;36955;47.416;7.716;2022-09-09T13:06:53;1.17;;;0.30;;
50946;SDS011;36955;47.416;7.716;2022-09-09T13:09:19;2.65;;;0.60;;
50946;SDS011;36955;47.416;7.716;2022-09-09T13:11:46;0.98;;;0.50;;
50946;SDS011;36955;47.416;7.716;2022-09-09T13:14:25;1.60;;;0.50;;
50946;SDS011;36955;47.416;7.716;2022-09-09T13:16:57;1.35;;;0.47;;
50946;SDS011;36955;47.416;7.716;2022-09-09T13:19:24;3.95;;;1.00;;
50946;SDS011;36955;47.416;7.716;2022-09-09T13:21:51;2.45;;;0.82;;
50946;SDS011;36955;47.416;7.716;2022-09-09T13:24:35;3.67;;;1.27;;
50946;SDS011;36955;47.416;7.716;2022-09-09T13:27:03;3.45;;;0.60;;
50946;SDS011;36955;47.416;7.716;2022-09-09T13:29:31;3.58;;;0.50;;
50946;SDS011;36955;47.416;7.716;2022-09-09T13:32:15;2.42;;;0.60;;
50946;SDS011;36955;47.416;7.716;2022-09-09T13:34:50;1.13;;;0.40;;
50946;SDS011;36955;47.416;7.716;2022-09-09T13:37:22;4.82;;;0.57;;
50946;SDS011;36955;47.416;7.716;2022-09-09T13:39:52;1.00;;;0.40;;
50946;SDS011;36955;47.416;7.716;2022-09-09T13:42:29;2.33;;;0.50;;
50946;SDS011;36955;47.416;7.716;2022-09-09T13:44:58;2.63;;;0.63;;
50946;SDS011;36955;47.416;7.716;2022-09-09T13:47:32;2.03;;;0.40;;
50946;SDS011;36955;47.416;7.716;2022-09-09T13:50:18;1.42;;;0.50;;
50946;SDS011;36955;47.416;7.716;2022-09-09T13:52:51;2.17;;;0.60;;
50946;SDS011;36955;47.416;7.716;2022-09-09T13:55:19;0.85;;;0.32;;
50946;SDS011;36955;47.416;7.716;2022-09-09T13:57:53;2.50;;;0.60;;
50946;SDS011;36955;47.416;7.716;2022-09-09T14:00:28;1.95;;;0.45;;
50946;SDS011;36955;47.416;7.716;2022-09-09T14:02:57;2.25;;;0.50;;
50946;SDS011;36955;47.416;7.716;2022-09-09T14:05:23;2.75;;;0.60;;
50946;SDS011;36955;47.416;7.716;2022-09-09T14:07:49;2.08;;;0.50;;
50946;SDS011;36955;47.416;7.716;2022-09-09T14:10:15;2.63;;;0.50;;
50946;SDS011;36955;47.416;7.716;2022-09-09T14:12:41;2.05;;;0.50;;
50946;SDS011;36955;47.416;7.716;2022-09-09T14:15:10;2.95;;;0.60;;
50946;SDS011;36955;47.416;7.716;2022-09-09T14:17:37;4.97;;;0.60;;
50946;SDS011;36955;47.416;7.716;2022-09-09T14:20:03;2.72;;;0.60;;
50946;SDS011;36955;47.416;7.716;2022-09-09T14:22:30;2.30;;;0.60;;
50946;SDS011;36955;47.416;7.716;2022-09-09T14:24:56;3.28;;;0.57;;
50946;SDS011;36955;47.416;7.716;2022-09-09T14:27:22;2.17;;;0.55;;
50946;SDS011;36955;47.416;7.716;2022-09-09T14:29:48;1.65;;;0.60;;
50946;SDS011;36955;47.416;7.716;2022-09-09T14:32:14;1.77;;;0.60;;
50946;SDS011;36955;47.416;7.716;2022-09-09T14:34:40;2.40;;;0.70;;
50946;SDS011;36955;47.416;7.716;2022-09-09T14:37:06;2.53;;;0.60;;
50946;SDS011;36955;47.416;7.716;2022-09-09T14:39:33;2.97;;;0.43;;
50946;SDS011;36955;47.416;7.716;2022-09-09T14:41:59;2.35;;;0.50;;
50946;SDS011;36955;47.416;7.716;2022-09-09T14:44:25;1.90;;;0.70;;
50946;SDS011;36955;47.416;7.716;2022-09-09T14:46:51;1.58;;;0.50;;
50946;SDS011;36955;47.416;7.716;2022-09-09T14:49:17;1.95;;;0.40;;
50946;SDS011;36955;47.416;7.716;2022-09-09T14:51:43;2.33;;;0.55;;
50946;SDS011;36955;47.416;7.716;2022-09-09T14:54:09;2.25;;;0.50;;
50946;SDS011;36955;47.416;7.716;2022-09-09T14:56:35;1.10;;;0.40;;
50946;SDS011;36955;47.416;7.716;2022-09-09T14:59:02;2.65;;;0.52;;
50946;SDS011;36955;47.416;7.716;2022-09-09T15:01:29;2.03;;;0.43;;
50946;SDS011;36955;47.416;7.716;2022-09-09T15:03:57;3.00;;;0.73;;
50946;SDS011;36955;47.416;7.716;2022-09-09T15:06:33;0.47;;;0.30;;
50946;SDS011;36955;47.416;7.716;2022-09-09T15:09:00;2.85;;;0.45;;
50946;SDS011;36955;47.416;7.716;2022-09-09T15:11:28;1.75;;;0.30;;
50946;SDS011;36955;47.416;7.716;2022-09-09T15:13:55;4.93;;;0.60;;
50946;SDS011;36955;47.416;7.716;2022-09-09T15:16:23;2.33;;;0.70;;
50946;SDS011;36955;47.416;7.716;2022-09-09T15:18:54;0.90;;;0.40;;
50946;SDS011;36955;47.416;7.716;2022-09-09T15:21:22;0.65;;;0.25;;
50946;SDS011;36955;47.416;7.716;2022-09-09T15:23:50;0.70;;;0.30;;
50946;SDS011;36955;47.416;7.716;2022-09-09T15:26:16;1.45;;;0.40;;
50946;SDS011;36955;47.416;7.716;2022-09-09T15:28:43;1.25;;;0.50;;
50946;SDS011;36955;47.416;7.716;2022-09-09T15:31:11;3.80;;;0.50;;
50946;SDS011;36955;47.416;7.716;2022-09-09T15:33:38;1.63;;;0.60;;
50946;SDS011;36955;47.416;7.716;2022-09-09T15:36:14;1.65;;;0.50;;
50946;SDS011;36955;47.416;7.716;2022-09-09T15:38:48;1.58;;;0.50;;
50946;SDS011;36955;47.416;7.716;2022-09-09T15:41:15;3.90;;;0.50;;
50946;SDS011;36955;47.416;7.716;2022-09-09T15:43:49;0.80;;;0.40;;
50946;SDS011;36955;47.416;7.716;2022-09-09T15:48:42;2.05;;;0.30;;
50946;SDS011;36955;47.416;7.716;2022-09-09T15:51:09;2.58;;;0.60;;
50946;SDS011;36955;47.416;7.716;2022-09-09T15:53:36;3.60;;;0.70;;
50946;SDS011;36955;47.416;7.716;2022-09-09T15:56:03;3.67;;;0.65;;
50946;SDS011;36955;47.416;7.716;2022-09-09T15:58:30;2.13;;;0.43;;
50946;SDS011;36955;47.416;7.716;2022-09-09T16:01:01;5.28;;;0.68;;
50946;SDS011;36955;47.416;7.716;2022-09-09T16:03:34;2.15;;;0.57;;
50946;SDS011;36955;47.416;7.716;2022-09-09T16:06:01;1.38;;;0.50;;
50946;SDS011;36955;47.416;7.716;2022-09-09T16:08:32;3.38;;;0.40;;
50946;SDS011;36955;47.416;7.716;2022-09-09T16:11:15;2.85;;;0.52;;
50946;SDS011;36955;47.416;7.716;2022-09-09T16:13:43;1.02;;;0.25;;
50946;SDS011;36955;47.416;7.716;2022-09-09T16:16:13;2.83;;;0.77;;
50946;SDS011;36955;47.416;7.716;2022-09-09T16:18:41;4.13;;;0.65;;
50946;SDS011;36955;47.416;7.716;2022-09-09T16:23:40;1.23;;;0.55;;
50946;SDS011;36955;47.416;7.716;2022-09-09T16:26:06;1.77;;;0.40;;
50946;SDS011;36955;47.416;7.716;2022-09-09T16:28:35;0.88;;;0.30;;
50946;SDS011;36955;47.416;7.716;2022-09-09T16:31:05;1.23;;;0.30;;
50946;SDS011;36955;47.416;7.716;2022-09-09T16:33:37;1.65;;;0.28;;
50946;SDS011;36955;47.416;7.716;2022-09-09T16:36:10;1.33;;;0.32;;
50946;SDS011;36955;47.416;7.716;2022-09-09T16:38:40;0.45;;;0.30;;
50946;SDS011;36955;47.416;7.716;2022-09-09T16:41:07;0.82;;;0.35;;
50946;SDS011;36955;47.416;7.716;2022-09-09T16:43:35;1.38;;;0.40;;
50946;SDS011;36955;47.416;7.716;2022-09-09T16:46:02;0.52;;;0.20;;
50946;SDS011;36955;47.416;7.716;2022-09-09T16:48:32;0.43;;;0.25;;
50946;SDS011;36955;47.416;7.716;2022-09-09T16:51:09;0.30;;;0.30;;
50946;SDS011;36955;47.416;7.716;2022-09-09T16:53:44;0.57;;;0.30;;
50946;SDS011;36955;47.416;7.716;2022-09-09T16:56:12;0.65;;;0.30;;
50946;SDS011;36955;47.416;7.716;2022-09-09T16:58:40;0.82;;;0.30;;
50946;SDS011;36955;47.416;7.716;2022-09-09T17:01:06;0.70;;;0.45;;
50946;SDS011;36955;47.416;7.716;2022-09-09T17:03:32;0.82;;;0.30;;
50946;SDS011;36955;47.416;7.716;2022-09-09T17:05:59;0.30;;;0.25;;
50946;SDS011;36955;47.416;7.716;2022-09-09T17:08:25;0.40;;;0.20;;
50946;SDS011;36955;47.416;7.716;2022-09-09T17:10:51;0.20;;;0.20;;
50946;SDS011;36955;47.416;7.716;2022-09-09T17:13:17;0.70;;;0.30;;
50946;SDS011;36955;47.416;7.716;2022-09-09T17:15:43;0.95;;;0.30;;
50946;SDS011;36955;47.416;7.716;2022-09-09T17:18:09;1.30;;;0.45;;
50946;SDS011;36955;47.416;7.716;2022-09-09T17:20:37;0.50;;;0.32;;
50946;SDS011;36955;47.416;7.716;2022-09-09T17:23:03;2.05;;;0.30;;